Time;durP1;ratioP1;P1;durP2;ratioP2;P2;SDS_P1;SDS_P2;PMS_P1;PMS_P2;Temp;Humidity;BMP_temperature;BMP_pressure;BME280_temperature;BME280_humidity;BME280_pressure;Samples;Min_cycle;Max_cycle;Signal;HPM_P1;HPM_P2
2022/03/05 00:02:21;;;;;;;34.78;16.15;;;1.90;40.00;;;;;;4992874;28;20402;-75
2022/03/05 00:04:47;;;;;;;33.90;16.00;;;1.80;41.20;;;;;;4992623;28;20410;-74
2022/03/05 00:07:13;;;;;;;33.55;16.08;;;1.80;41.50;;;;;;4984929;28;20413;-74
2022/03/05 00:09:38;;;;;;;44.93;16.50;;;1.80;41.40;;;;;;4982302;28;20838;-74
2022/03/05 00:12:04;;;;;;;34.27;15.23;;;1.80;40.20;;;;;;4986335;28;20919;-74
2022/03/05 00:14:30;;;;;;;34.78;15.50;;;1.90;40.70;;;;;;4990637;28;20500;-74
2022/03/05 00:16:55;;;;;;;38.10;16.20;;;2.00;41.80;;;;;;4992129;28;20807;-74
2022/03/05 00:19:21;;;;;;;40.97;16.93;;;2.00;39.60;;;;;;4981837;28;20434;-73
2022/03/05 00:21:47;;;;;;;35.20;16.10;;;2.30;40.60;;;;;;4982689;28;20911;-74
2022/03/05 00:24:12;;;;;;;34.42;16.15;;;2.10;39.70;;;;;;4992003;28;20413;-74
2022/03/05 00:26:38;;;;;;;43.20;17.90;;;2.00;41.60;;;;;;4987420;28;20398;-73
2022/03/05 00:29:04;;;;;;;42.60;17.50;;;1.90;42.20;;;;;;4983906;28;20407;-74
2022/03/05 00:31:30;;;;;;;41.65;16.35;;;1.70;42.30;;;;;;4990673;28;20408;-74
2022/03/05 00:33:55;;;;;;;40.47;16.88;;;1.70;43.70;;;;;;4981460;28;20396;-74
2022/03/05 00:36:21;;;;;;;34.75;15.82;;;1.90;42.50;;;;;;4987599;28;20415;-75
2022/03/05 00:38:47;;;;;;;35.78;16.23;;;2.00;41.00;;;;;;4985019;28;20404;-75
2022/03/05 00:41:12;;;;;;;39.23;16.30;;;2.00;40.90;;;;;;4981830;28;20414;-73
2022/03/05 00:43:38;;;;;;;39.67;16.00;;;2.00;40.60;;;;;;4992267;28;20398;-73
2022/03/05 00:46:04;;;;;;;40.78;16.90;;;2.10;39.80;;;;;;4987387;28;20408;-76
2022/03/05 00:48:29;;;;;;;41.42;17.60;;;2.10;41.50;;;;;;4989202;28;20797;-73
2022/03/05 00:50:55;;;;;;;46.53;17.50;;;2.20;39.70;;;;;;4979971;28;20412;-74
2022/03/05 00:53:21;;;;;;;41.17;18.03;;;2.10;39.60;;;;;;4992250;28;20410;-74
2022/03/05 00:55:47;;;;;;;40.25;17.90;;;1.90;39.90;;;;;;4989272;28;20502;-73
2022/03/05 00:58:14;;;;;;;49.30;17.88;;;1.70;40.80;;;;;;4989738;28;20428;-73
2022/03/05 01:00:40;;;;;;;42.35;18.70;;;1.70;40.50;;;;;;4990769;28;20489;-73
2022/03/05 01:03:06;;;;;;;42.88;19.25;;;1.70;41.10;;;;;;4990748;28;20409;-74
2022/03/05 01:05:32;;;;;;;47.85;17.20;;;1.80;42.70;;;;;;4991586;28;20407;-74
2022/03/05 01:07:57;;;;;;;46.13;18.20;;;1.80;42.50;;;;;;4989338;28;20930;-73
2022/03/05 01:10:23;;;;;;;44.10;17.67;;;1.70;42.70;;;;;;4990685;28;20445;-76
2022/03/05 01:12:49;;;;;;;43.95;17.75;;;1.80;42.10;;;;;;4988274;28;20416;-74
2022/03/05 01:15:15;;;;;;;45.53;18.90;;;1.80;41.50;;;;;;4984147;28;20420;-74
2022/03/05 01:17:41;;;;;;;44.30;18.42;;;1.80;41.60;;;;;;4989906;28;20414;-74
2022/03/05 01:20:07;;;;;;;47.35;19.80;;;1.70;42.80;;;;;;4991687;28;20825;-74
2022/03/05 01:22:33;;;;;;;43.33;19.20;;;1.80;42.20;;;;;;4991561;28;20402;-74
2022/03/05 01:24:58;;;;;;;50.73;19.77;;;1.60;40.90;;;;;;4991348;28;20413;-74
2022/03/05 01:27:24;;;;;;;50.58;19.40;;;1.50;42.10;;;;;;4991635;28;20421;-74
2022/03/05 01:29:50;;;;;;;52.30;20.20;;;1.60;42.50;;;;;;4991820;28;20437;-74
2022/03/05 01:32:16;;;;;;;48.65;20.10;;;1.60;41.50;;;;;;4986882;28;20414;-75
2022/03/05 01:34:42;;;;;;;50.00;19.37;;;1.50;42.30;;;;;;4995682;28;20413;-73
2022/03/05 01:37:08;;;;;;;49.38;19.95;;;1.60;43.00;;;;;;4993383;28;20399;-75
2022/03/05 01:39:34;;;;;;;52.88;21.30;;;1.60;41.80;;;;;;4992771;28;20488;-76
2022/03/05 01:42:01;;;;;;;53.23;21.27;;;1.60;41.40;;;;;;4993503;28;20426;-75
2022/03/05 01:44:27;;;;;;;50.72;22.02;;;1.60;42.70;;;;;;5001264;28;20505;-74
2022/03/05 01:46:52;;;;;;;54.28;21.10;;;1.50;43.50;;;;;;4995389;28;20434;-73
2022/03/05 01:49:18;;;;;;;60.00;20.30;;;1.60;42.90;;;;;;5004561;28;20428;-74
2022/03/05 01:51:44;;;;;;;54.35;21.95;;;1.60;42.30;;;;;;5002752;28;20417;-75
2022/03/05 01:54:11;;;;;;;63.75;23.38;;;1.70;41.50;;;;;;4991786;28;20413;-74
2022/03/05 01:56:38;;;;;;;54.00;21.85;;;1.60;41.90;;;;;;4993279;28;20449;-73
2022/03/05 01:59:05;;;;;;;58.58;21.88;;;1.60;42.90;;;;;;4993509;28;20380;-74
2022/03/05 02:01:30;;;;;;;55.97;21.92;;;1.60;44.30;;;;;;4995700;28;20405;-75
2022/03/05 02:03:56;;;;;;;57.10;22.85;;;1.50;44.00;;;;;;4999858;28;20402;-75
2022/03/05 02:06:23;;;;;;;55.70;21.70;;;1.50;43.20;;;;;;5005740;28;20496;-73
2022/03/05 02:08:49;;;;;;;58.58;22.30;;;1.60;44.30;;;;;;4991754;28;20406;-75
2022/03/05 02:11:15;;;;;;;62.40;23.85;;;1.60;43.60;;;;;;4991068;28;20493;-73
2022/03/05 02:13:43;;;;;;;54.90;22.38;;;1.40;43.70;;;;;;4991438;28;20501;-73
2022/03/05 02:16:10;;;;;;;60.13;23.35;;;1.40;44.70;;;;;;4990473;28;22124;-74
2022/03/05 02:18:36;;;;;;;58.97;22.77;;;1.40;45.00;;;;;;4989909;28;20394;-74
2022/03/05 02:21:02;;;;;;;65.07;23.88;;;1.30;45.90;;;;;;4989963;28;20445;-74
2022/03/05 02:23:27;;;;;;;66.32;23.58;;;1.30;45.40;;;;;;4990980;28;21027;-75
2022/03/05 02:25:58;;;;;;;62.70;24.60;;;1.20;45.10;;;;;;4990497;28;20407;-75
2022/03/05 02:28:26;;;;;;;59.08;23.10;;;1.20;46.50;;;;;;4989053;28;20410;-75
2022/03/05 02:30:53;;;;;;;62.92;23.63;;;1.20;47.40;;;;;;4988798;28;20406;-75
2022/03/05 02:33:19;;;;;;;61.22;22.77;;;1.30;47.30;;;;;;4989351;28;20414;-73
2022/03/05 02:35:45;;;;;;;64.30;25.92;;;1.30;46.00;;;;;;4991502;28;20410;-73
2022/03/05 02:38:16;;;;;;;65.43;23.65;;;1.30;45.50;;;;;;4994056;28;20876;-74
2022/03/05 02:40:43;;;;;;;66.47;23.90;;;1.30;46.50;;;;;;4995441;28;20409;-75
2022/03/05 02:43:10;;;;;;;61.90;24.63;;;1.20;46.70;;;;;;4994497;28;20709;-75
2022/03/05 02:45:36;;;;;;;63.75;24.88;;;1.20;45.40;;;;;;4995058;28;20403;-73
2022/03/05 02:48:03;;;;;;;63.03;24.17;;;1.10;46.20;;;;;;4993918;28;20772;-73
2022/03/05 02:50:29;;;;;;;61.50;24.60;;;1.10;46.70;;;;;;4992635;28;20409;-73
2022/03/05 02:52:55;;;;;;;65.10;23.10;;;1.10;47.60;;;;;;4994639;28;20409;-74
2022/03/05 02:55:21;;;;;;;67.57;24.80;;;1.20;47.20;;;;;;4994793;28;20844;-75
2022/03/05 02:57:47;;;;;;;60.20;23.83;;;1.20;46.90;;;;;;4994036;28;20898;-74
2022/03/05 03:00:13;;;;;;;60.50;23.40;;;1.10;46.50;;;;;;4995770;28;20908;-75
2022/03/05 03:02:39;;;;;;;65.07;23.73;;;1.10;47.30;;;;;;4996037;28;20494;-73
2022/03/05 03:05:05;;;;;;;62.75;23.48;;;1.10;48.40;;;;;;4994568;28;20417;-74
2022/03/05 03:07:31;;;;;;;65.32;24.70;;;1.00;48.10;;;;;;4994558;28;20433;-74
2022/03/05 03:09:58;;;;;;;63.13;23.42;;;1.10;47.80;;;;;;4993916;28;20418;-73
2022/03/05 03:12:27;;;;;;;59.33;22.02;;;1.10;48.10;;;;;;4994230;28;20764;-74
2022/03/05 03:14:52;;;;;;;68.30;25.23;;;1.00;46.60;;;;;;4993846;28;20409;-74
2022/03/05 03:17:18;;;;;;;59.10;23.40;;;1.10;47.70;;;;;;4993913;28;20970;-74
2022/03/05 03:19:43;;;;;;;65.77;24.33;;;1.20;48.00;;;;;;4986929;28;20417;-75
2022/03/05 03:22:09;;;;;;;69.75;24.38;;;1.10;48.20;;;;;;4994462;28;20407;-74
2022/03/05 03:24:35;;;;;;;60.88;23.15;;;1.20;48.50;;;;;;4993075;28;20426;-73
2022/03/05 03:27:01;;;;;;;63.50;23.43;;;1.10;47.80;;;;;;4988483;28;20408;-74
2022/03/05 03:29:26;;;;;;;64.70;24.30;;;1.00;47.70;;;;;;4988216;28;20445;-75
2022/03/05 03:31:52;;;;;;;66.33;23.80;;;0.90;49.70;;;;;;4993850;28;20433;-74
2022/03/05 03:34:18;;;;;;;58.77;22.77;;;1.10;48.40;;;;;;4993801;28;20926;-74
2022/03/05 03:36:44;;;;;;;58.00;22.63;;;1.20;47.50;;;;;;4987699;28;20423;-74
2022/03/05 03:39:09;;;;;;;64.32;23.60;;;1.10;49.40;;;;;;4992198;28;20419;-74
2022/03/05 03:41:35;;;;;;;59.10;24.75;;;1.00;48.10;;;;;;4994072;28;20900;-74
2022/03/05 03:44:01;;;;;;;59.33;23.47;;;0.90;47.90;;;;;;4994232;28;20492;-74
2022/03/05 03:46:26;;;;;;;62.97;21.93;;;1.00;49.90;;;;;;4992395;28;20465;-75
2022/03/05 03:48:52;;;;;;;58.58;22.40;;;1.00;49.40;;;;;;4987973;28;20757;-74
2022/03/05 03:51:17;;;;;;;64.73;23.53;;;1.00;48.50;;;;;;4994363;28;20402;-74
2022/03/05 03:53:43;;;;;;;58.97;23.73;;;1.00;47.80;;;;;;4994481;28;20783;-73
2022/03/05 03:56:09;;;;;;;58.50;23.20;;;1.00;49.80;;;;;;4992397;28;20418;-74
2022/03/05 03:58:34;;;;;;;62.08;22.85;;;0.90;48.80;;;;;;4994186;28;20474;-75
2022/03/05 04:01:00;;;;;;;60.17;23.52;;;1.00;48.70;;;;;;4993708;28;20793;-75
2022/03/05 04:03:25;;;;;;;62.63;24.33;;;1.00;46.10;;;;;;4993293;28;20497;-74
2022/03/05 04:05:51;;;;;;;57.40;22.20;;;1.00;47.60;;;;;;4992010;28;20395;-76
2022/03/05 04:11:01;;;;;;;63.67;23.40;;;1.10;47.80;;;;;;4993437;28;20410;-76
2022/03/05 04:13:27;;;;;;;57.78;21.92;;;0.90;47.70;;;;;;4993162;28;20411;-75
2022/03/05 04:15:53;;;;;;;64.55;23.65;;;1.00;48.20;;;;;;4993159;28;20410;-75
2022/03/05 04:18:19;;;;;;;64.37;23.80;;;1.00;47.50;;;;;;4991968;28;20402;-76
2022/03/05 04:20:44;;;;;;;56.97;22.17;;;1.00;47.60;;;;;;4994047;28;20888;-75
2022/03/05 04:23:10;;;;;;;59.75;23.35;;;1.10;46.70;;;;;;4993708;28;20839;-75
2022/03/05 04:25:35;;;;;;;56.63;22.70;;;1.10;47.20;;;;;;4993772;28;20413;-74
2022/03/05 04:28:01;;;;;;;60.60;23.43;;;1.10;47.10;;;;;;4993198;28;20403;-76
2022/03/05 04:30:27;;;;;;;55.53;21.65;;;1.00;46.60;;;;;;4993802;28;20439;-75
2022/03/05 04:32:53;;;;;;;65.50;22.80;;;1.00;47.80;;;;;;4994572;28;20416;-74
2022/03/05 04:35:18;;;;;;;60.00;22.67;;;1.10;48.00;;;;;;4996802;28;20864;-74
2022/03/05 04:37:44;;;;;;;53.72;21.05;;;1.10;48.00;;;;;;4999112;28;20820;-76
2022/03/05 04:40:10;;;;;;;57.27;22.83;;;1.10;47.40;;;;;;4999157;28;20493;-75
2022/03/05 04:42:36;;;;;;;58.92;23.17;;;1.00;46.40;;;;;;5001291;28;20402;-73
2022/03/05 04:45:02;;;;;;;62.13;22.87;;;1.00;48.00;;;;;;5000863;28;20434;-74
2022/03/05 04:47:28;;;;;;;57.67;21.33;;;1.10;46.00;;;;;;5001715;28;20414;-76
2022/03/05 04:49:54;;;;;;;62.50;22.63;;;1.10;46.90;;;;;;5006319;28;20441;-75
2022/03/05 04:52:19;;;;;;;58.13;23.47;;;1.00;46.90;;;;;;5005663;28;20413;-75
2022/03/05 04:54:45;;;;;;;58.95;22.77;;;1.00;47.10;;;;;;4994274;28;20489;-74
2022/03/05 04:57:11;;;;;;;57.60;20.60;;;1.00;47.70;;;;;;4994161;28;21219;-74
2022/03/05 04:59:36;;;;;;;65.23;24.57;;;1.10;47.90;;;;;;5003192;28;20440;-75
2022/03/05 05:02:02;;;;;;;61.50;22.40;;;1.00;46.40;;;;;;5007161;28;20459;-76
2022/03/05 05:04:28;;;;;;;61.75;22.35;;;1.10;47.20;;;;;;4998079;28;20831;-75
2022/03/05 05:06:54;;;;;;;55.08;21.50;;;0.90;46.70;;;;;;4995801;28;20529;-75
2022/03/05 05:09:20;;;;;;;57.03;23.20;;;0.90;46.90;;;;;;4994020;28;20927;-74
2022/03/05 05:11:45;;;;;;;57.47;22.38;;;0.90;47.20;;;;;;4995278;28;20465;-74
2022/03/05 05:14:11;;;;;;;58.08;22.25;;;1.10;46.50;;;;;;4994542;28;20440;-75
2022/03/05 05:16:37;;;;;;;55.30;21.70;;;1.00;46.30;;;;;;4992064;28;20442;-75
2022/03/05 05:21:48;;;;;;;53.70;22.05;;;1.00;47.20;;;;;;4990327;28;20932;-77
2022/03/05 05:24:13;;;;;;;51.77;20.97;;;0.90;48.30;;;;;;4992373;28;20410;-76
2022/03/05 05:26:39;;;;;;;53.07;20.80;;;1.00;47.70;;;;;;4995065;28;20783;-77
2022/03/05 05:29:05;;;;;;;56.95;22.90;;;1.00;46.00;;;;;;4990991;28;20527;-76
2022/03/05 05:31:30;;;;;;;59.33;21.83;;;0.90;46.40;;;;;;4992051;28;20414;-77
2022/03/05 05:33:56;;;;;;;62.40;22.70;;;0.90;46.80;;;;;;4992495;28;20753;-76
2022/03/05 05:36:22;;;;;;;52.25;21.55;;;0.90;48.40;;;;;;4992728;28;20398;-77
2022/03/05 05:38:47;;;;;;;62.17;22.20;;;0.90;49.10;;;;;;4992107;28;20434;-76
2022/03/05 05:41:14;;;;;;;52.10;21.00;;;0.90;48.50;;;;;;4991345;28;20469;-75
2022/03/05 05:43:40;;;;;;;58.15;22.30;;;0.90;47.20;;;;;;4991910;28;20453;-75
2022/03/05 05:46:06;;;;;;;58.33;23.10;;;0.80;46.40;;;;;;4991921;28;20406;-77
2022/03/05 05:48:31;;;;;;;53.28;21.48;;;0.80;48.00;;;;;;4992026;28;20438;-74
2022/03/05 05:50:57;;;;;;;55.50;22.13;;;0.80;47.00;;;;;;4991692;28;20573;-76
2022/03/05 05:53:25;;;;;;;56.67;21.77;;;0.80;46.90;;;;;;4992273;28;20900;-75
2022/03/05 05:55:52;;;;;;;60.17;21.50;;;0.80;47.40;;;;;;4993120;28;20414;-77
2022/03/05 05:58:17;;;;;;;52.22;21.55;;;0.80;47.50;;;;;;4990456;28;20406;-76
2022/03/05 06:00:43;;;;;;;51.40;21.20;;;0.80;49.40;;;;;;4992325;28;20486;-75
2022/03/05 06:03:09;;;;;;;62.23;22.17;;;0.80;47.20;;;;;;4992705;28;20411;-76
2022/03/05 06:05:34;;;;;;;55.60;21.10;;;0.80;47.90;;;;;;4993022;28;20410;-74
2022/03/05 06:08:00;;;;;;;53.50;21.23;;;0.80;49.60;;;;;;4991987;28;20417;-75
2022/03/05 06:10:26;;;;;;;54.57;22.00;;;0.80;47.20;;;;;;4993419;28;20438;-75
2022/03/05 06:12:51;;;;;;;55.85;21.75;;;0.70;47.60;;;;;;4989727;28;20408;-77
2022/03/05 06:15:17;;;;;;;51.00;21.15;;;0.70;47.60;;;;;;4990347;28;20429;-76
2022/03/05 06:17:43;;;;;;;50.97;21.50;;;0.70;48.90;;;;;;5000945;28;20479;-75
2022/03/05 06:20:10;;;;;;;49.30;21.35;;;0.70;47.60;;;;;;5005373;28;20410;-75
2022/03/05 06:22:36;;;;;;;56.65;21.77;;;0.80;48.10;;;;;;5006253;28;20856;-75
2022/03/05 06:25:02;;;;;;;56.37;22.00;;;0.80;47.70;;;;;;5001945;28;20473;-76
2022/03/05 06:27:28;;;;;;;54.00;20.98;;;0.80;47.50;;;;;;5004459;28;20405;-76
2022/03/05 06:29:53;;;;;;;54.23;21.57;;;0.70;47.40;;;;;;4993610;28;20406;-74
2022/03/05 06:32:19;;;;;;;56.47;21.10;;;0.70;46.80;;;;;;4991289;28;20773;-74
2022/03/05 06:34:44;;;;;;;56.15;22.17;;;0.90;47.70;;;;;;4991780;28;20464;-75
2022/03/05 06:37:10;;;;;;;57.60;21.43;;;0.90;46.00;;;;;;4989545;28;20975;-74
2022/03/05 06:39:35;;;;;;;50.80;20.37;;;1.00;45.50;;;;;;4991469;28;20405;-75
2022/03/05 06:42:01;;;;;;;53.00;21.07;;;1.00;45.90;;;;;;4993175;28;20482;-74
2022/03/05 06:44:27;;;;;;;55.83;21.98;;;1.10;47.20;;;;;;4991497;28;20406;-74
2022/03/05 06:46:53;;;;;;;53.93;22.37;;;1.10;45.70;;;;;;4990708;28;20398;-74
2022/03/05 06:49:19;;;;;;;48.90;21.77;;;1.10;45.00;;;;;;4991294;28;20768;-74
2022/03/05 06:51:45;;;;;;;55.97;21.80;;;1.10;45.00;;;;;;4991980;28;20453;-74
2022/03/05 06:54:10;;;;;;;49.30;21.47;;;1.10;45.60;;;;;;4990356;28;20508;-73
2022/03/05 06:56:36;;;;;;;48.20;21.03;;;1.10;45.70;;;;;;4991044;28;20398;-73
2022/03/05 06:59:01;;;;;;;53.30;21.87;;;1.10;44.50;;;;;;4990062;28;20411;-73
2022/03/05 07:01:27;;;;;;;51.58;21.40;;;1.10;44.80;;;;;;4988357;28;20444;-73
2022/03/05 07:03:53;;;;;;;53.70;20.70;;;1.20;45.10;;;;;;4988007;28;20407;-74
2022/03/05 07:06:18;;;;;;;52.30;20.00;;;1.30;44.50;;;;;;4990931;28;20402;-75
2022/03/05 07:08:44;;;;;;;47.00;20.37;;;1.40;43.70;;;;;;4990557;28;20444;-77
2022/03/05 07:11:09;;;;;;;48.03;20.85;;;1.50;43.70;;;;;;4990198;28;20446;-76
2022/03/05 07:13:35;;;;;;;53.35;21.25;;;1.50;42.50;;;;;;4991634;28;20899;-74
2022/03/05 07:16:01;;;;;;;54.80;22.03;;;1.50;43.60;;;;;;4991785;28;20820;-75
2022/03/05 07:18:26;;;;;;;54.20;22.67;;;1.70;41.90;;;;;;4991125;28;20762;-76
2022/03/05 07:20:52;;;;;;;49.03;20.67;;;1.70;41.80;;;;;;4992236;28;20390;-75
2022/03/05 07:23:17;;;;;;;49.67;21.38;;;1.80;41.10;;;;;;4994395;28;20489;-75
2022/03/05 07:25:43;;;;;;;47.88;21.75;;;1.90;41.50;;;;;;4989281;28;20396;-75
2022/03/05 07:28:10;;;;;;;53.00;20.80;;;1.90;40.40;;;;;;4994985;28;20521;-75
2022/03/05 07:30:37;;;;;;;51.85;22.20;;;1.90;40.40;;;;;;4996260;28;20414;-75
2022/03/05 07:33:03;;;;;;;51.75;21.70;;;2.00;41.30;;;;;;4994983;28;20452;-75
2022/03/05 07:35:29;;;;;;;47.63;20.27;;;2.20;40.70;;;;;;4997597;28;20406;-74
2022/03/05 07:37:54;;;;;;;47.80;21.23;;;2.20;40.00;;;;;;5002853;28;20429;-76
2022/03/05 07:40:20;;;;;;;46.47;20.73;;;2.20;39.60;;;;;;5008592;28;20403;-78
2022/03/05 07:42:45;;;;;;;65.38;22.75;;;2.30;39.30;;;;;;5001013;28;20406;-78
2022/03/05 07:45:11;;;;;;;48.65;20.83;;;2.40;38.30;;;;;;5001108;28;20437;-78
2022/03/05 07:47:37;;;;;;;47.23;21.50;;;2.40;36.70;;;;;;5003033;28;20411;-76
2022/03/05 07:50:04;;;;;;;51.75;20.42;;;2.50;36.30;;;;;;5002274;28;20494;-77
2022/03/05 07:52:30;;;;;;;49.90;20.23;;;2.70;36.00;;;;;;5008903;28;20415;-80
2022/03/05 07:54:56;;;;;;;53.78;21.25;;;2.70;34.70;;;;;;5010886;28;20525;-77
2022/03/05 07:57:21;;;;;;;49.72;21.15;;;2.80;35.70;;;;;;5001549;28;20402;-78
2022/03/05 07:59:47;;;;;;;44.10;20.37;;;2.90;34.90;;;;;;5002543;28;20868;-77
2022/03/05 08:02:15;;;;;;;53.33;20.73;;;3.00;35.10;;;;;;4994937;28;20415;-75
2022/03/05 08:04:41;;;;;;;53.83;22.40;;;3.10;34.40;;;;;;4992253;28;20771;-76
2022/03/05 08:07:07;;;;;;;45.90;21.27;;;3.10;34.00;;;;;;4994101;28;20402;-77
2022/03/05 08:09:35;;;;;;;46.70;21.15;;;3.20;34.60;;;;;;4995610;28;20464;-77
2022/03/05 08:12:02;;;;;;;44.93;20.43;;;3.30;35.00;;;;;;4994725;28;20434;-75
2022/03/05 08:14:27;;;;;;;46.07;21.50;;;3.40;33.20;;;;;;5001187;28;20425;-78
2022/03/05 08:16:53;;;;;;;48.72;21.42;;;3.40;33.00;;;;;;5006744;28;20406;-78
2022/03/05 08:19:18;;;;;;;45.58;21.48;;;3.80;32.90;;;;;;5011209;28;20391;-77
2022/03/05 08:21:44;;;;;;;45.70;20.45;;;3.60;31.90;;;;;;5005014;28;20414;-76
2022/03/05 08:24:10;;;;;;;49.20;20.90;;;3.80;32.70;;;;;;5000138;28;20469;-77
2022/03/05 08:26:37;;;;;;;48.80;21.35;;;3.80;31.30;;;;;;5007063;28;20488;-77
2022/03/05 08:29:03;;;;;;;46.97;21.23;;;3.90;31.80;;;;;;5002029;28;20947;-78
2022/03/05 08:31:31;;;;;;;45.35;19.52;;;4.00;31.40;;;;;;4999644;28;20415;-78
2022/03/05 08:33:58;;;;;;;42.47;19.13;;;4.10;30.40;;;;;;4992208;28;20430;-78
2022/03/05 08:36:24;;;;;;;47.33;20.35;;;4.20;30.40;;;;;;5000368;28;20407;-77
2022/03/05 08:38:49;;;;;;;42.70;18.60;;;4.30;30.00;;;;;;4997206;28;20522;-76
2022/03/05 08:41:15;;;;;;;46.40;20.80;;;4.50;28.50;;;;;;4995410;28;20399;-77
2022/03/05 08:43:42;;;;;;;46.03;21.13;;;4.40;28.80;;;;;;4995059;28;20402;-77
2022/03/05 08:46:09;;;;;;;43.22;19.88;;;4.50;29.80;;;;;;4995872;28;20413;-77
2022/03/05 08:48:35;;;;;;;53.47;21.50;;;4.50;28.90;;;;;;4995748;28;20504;-79
2022/03/05 08:51:01;;;;;;;46.17;19.92;;;4.50;29.10;;;;;;4993702;28;20453;-78
2022/03/05 08:53:26;;;;;;;42.72;20.13;;;4.80;29.70;;;;;;4994593;28;20410;-76
2022/03/05 08:55:53;;;;;;;45.60;21.45;;;4.90;28.00;;;;;;4992389;28;20418;-78
2022/03/05 08:58:19;;;;;;;44.17;20.20;;;5.10;28.30;;;;;;5001319;28;20465;-76
2022/03/05 09:00:44;;;;;;;46.55;22.20;;;5.10;26.50;;;;;;5001766;28;20410;-76
2022/03/05 09:03:10;;;;;;;48.20;20.13;;;5.00;26.30;;;;;;5002684;28;20559;-81
2022/03/05 09:05:40;;;;;;;42.20;19.87;;;5.00;27.50;;;;;;5009090;28;20433;-77
2022/03/05 09:08:12;;;;;;;44.30;20.20;;;5.20;27.40;;;;;;5009501;28;20406;-77
2022/03/05 09:10:37;;;;;;;44.88;20.35;;;5.40;26.10;;;;;;4999672;28;20438;-78
2022/03/05 09:13:06;;;;;;;46.43;20.13;;;5.40;26.90;;;;;;4994932;28;20417;-77
2022/03/05 09:15:32;;;;;;;44.33;20.02;;;5.50;26.00;;;;;;4997483;28;20880;-78
2022/03/05 09:17:58;;;;;;;46.85;20.88;;;5.60;25.90;;;;;;4996291;28;20458;-77
2022/03/05 09:20:24;;;;;;;44.95;20.30;;;5.70;26.70;;;;;;4995311;28;20438;-78
2022/03/05 09:22:50;;;;;;;44.75;21.10;;;5.80;26.30;;;;;;4990223;28;20394;-78
2022/03/05 09:25:15;;;;;;;45.00;19.63;;;5.80;25.10;;;;;;4993712;28;20402;-78
2022/03/05 09:27:41;;;;;;;43.83;20.50;;;6.50;23.50;;;;;;4995851;28;20753;-78
2022/03/05 09:30:08;;;;;;;45.78;21.15;;;6.10;22.80;;;;;;4998509;28;20406;-78
2022/03/05 09:32:33;;;;;;;44.47;19.65;;;6.00;23.10;;;;;;4994502;28;20421;-80
2022/03/05 09:34:59;;;;;;;42.97;20.20;;;6.00;23.00;;;;;;4996319;28;20407;-77
2022/03/05 09:37:28;;;;;;;43.50;19.50;;;6.00;23.20;;;;;;4992911;28;20927;-77
2022/03/05 09:39:54;;;;;;;42.90;21.65;;;6.00;23.00;;;;;;4994123;28;20403;-78
2022/03/05 09:42:19;;;;;;;44.38;20.92;;;5.80;22.80;;;;;;4994032;28;20775;-78
2022/03/05 09:44:52;;;;;;;45.47;20.93;;;5.90;22.20;;;;;;4993528;28;20402;-78
2022/03/05 09:47:22;;;;;;;45.00;21.48;;;4.70;22.60;;;;;;4996558;28;20458;-77
2022/03/05 09:49:48;;;;;;;45.72;19.75;;;6.40;23.70;;;;;;4999637;28;20433;-78
2022/03/05 09:52:16;;;;;;;47.07;19.97;;;6.50;22.00;;;;;;4997547;28;20414;-77
2022/03/05 09:54:42;;;;;;;40.33;19.90;;;6.50;20.90;;;;;;4995510;28;20441;-77
2022/03/05 09:57:10;;;;;;;46.70;21.38;;;6.40;21.30;;;;;;4995801;28;20402;-77
2022/03/05 09:59:39;;;;;;;42.65;20.23;;;6.50;21.90;;;;;;5003020;28;20406;-76
2022/03/05 10:02:12;;;;;;;49.67;20.20;;;6.70;22.40;;;;;;4998743;28;20398;-77
2022/03/05 10:04:39;;;;;;;40.40;18.98;;;6.80;20.80;;;;;;4999356;28;20777;-77
2022/03/05 10:07:12;;;;;;;45.03;21.02;;;6.90;20.10;;;;;;4994868;28;20426;-77
2022/03/05 10:09:44;;;;;;;43.53;19.70;;;7.00;19.80;;;;;;4993111;28;20428;-79
2022/03/05 10:12:29;;;;;;;40.45;20.33;;;7.20;21.00;;;;;;4997076;28;20416;-76
2022/03/05 10:15:17;;;;;;;40.72;19.23;;;7.10;19.70;;;;;;4996351;28;20414;-77
2022/03/05 10:17:51;;;;;;;41.80;20.00;;;7.20;20.00;;;;;;4992915;28;20401;-77
2022/03/05 10:20:18;;;;;;;36.83;18.25;;;7.30;19.10;;;;;;4997838;28;20397;-77
2022/03/05 10:22:57;;;;;;;41.30;19.05;;;7.20;19.30;;;;;;5002071;28;20394;-77
2022/03/05 10:25:36;;;;;;;38.78;18.95;;;7.40;19.10;;;;;;4997521;28;20402;-76
2022/03/05 10:28:03;;;;;;;38.20;18.80;;;7.50;18.80;;;;;;5000498;28;20512;-77
2022/03/05 10:30:37;;;;;;;39.13;19.20;;;7.40;19.80;;;;;;4997677;28;20427;-77
2022/03/05 10:33:06;;;;;;;40.15;20.00;;;7.50;19.30;;;;;;4994677;28;20397;-77
2022/03/05 10:35:32;;;;;;;45.25;20.77;;;7.80;19.70;;;;;;4994591;28;20425;-76
2022/03/05 10:37:58;;;;;;;44.28;19.25;;;7.80;18.00;;;;;;4995491;28;20429;-77
2022/03/05 10:40:30;;;;;;;37.28;19.52;;;7.80;21.10;;;;;;4988901;28;20529;-76
2022/03/05 10:43:01;;;;;;;39.30;18.05;;;8.10;18.70;;;;;;4996833;28;20402;-78
2022/03/05 10:45:29;;;;;;;38.85;19.05;;;7.90;18.80;;;;;;5001770;28;20411;-77
2022/03/05 10:48:03;;;;;;;36.90;18.45;;;7.90;19.40;;;;;;4999415;28;20486;-78
2022/03/05 10:50:30;;;;;;;38.25;18.80;;;8.10;16.40;;;;;;5003035;28;20455;-77
2022/03/05 10:53:39;;;;;;;34.45;17.77;;;8.10;16.10;;;;;;5001590;28;20407;-77
2022/03/05 10:56:33;;;;;;;38.00;18.77;;;7.90;15.90;;;;;;5000826;28;20428;-78
2022/03/05 10:59:16;;;;;;;33.78;17.95;;;7.90;15.90;;;;;;5006860;28;20415;-77
2022/03/05 11:01:43;;;;;;;38.85;17.23;;;8.00;15.90;;;;;;4996745;28;20917;-77
2022/03/05 11:04:14;;;;;;;39.40;19.98;;;8.20;15.50;;;;;;4999419;28;20402;-77
2022/03/05 11:06:44;;;;;;;38.20;18.35;;;8.10;16.00;;;;;;4999613;28;20886;-77
2022/03/05 11:09:12;;;;;;;34.55;17.95;;;8.30;16.50;;;;;;4996286;28;20484;-79
2022/03/05 11:11:43;;;;;;;35.80;18.23;;;8.30;14.50;;;;;;4998691;28;20401;-78
2022/03/05 11:14:15;;;;;;;36.60;17.45;;;8.40;15.00;;;;;;4997009;28;20460;-77
2022/03/05 11:16:42;;;;;;;35.55;18.10;;;8.50;15.00;;;;;;4999534;28;20420;-78
2022/03/05 11:19:12;;;;;;;37.47;18.58;;;8.50;16.10;;;;;;4995338;28;20401;-77
2022/03/05 11:21:37;;;;;;;35.35;18.33;;;8.60;15.00;;;;;;4995416;28;20464;-77
2022/03/05 11:24:05;;;;;;;36.97;18.00;;;8.70;14.80;;;;;;4993381;28;20406;-75
2022/03/05 11:26:32;;;;;;;38.78;19.67;;;8.80;13.60;;;;;;4988506;28;20406;-76
2022/03/05 11:28:58;;;;;;;36.50;19.08;;;8.70;13.40;;;;;;4992589;28;20830;-75
2022/03/05 11:31:32;;;;;;;35.40;18.73;;;8.70;15.50;;;;;;4994329;28;20403;-77
2022/03/05 11:34:24;;;;;;;34.28;17.52;;;9.00;14.90;;;;;;4995036;28;20405;-76
2022/03/05 11:36:51;;;;;;;33.70;17.92;;;9.10;14.30;;;;;;4993558;28;20410;-78
2022/03/05 11:39:19;;;;;;;37.67;16.92;;;9.10;12.80;;;;;;4993744;28;20472;-77
2022/03/05 11:41:50;;;;;;;35.88;17.50;;;9.10;13.30;;;;;;4995251;28;20399;-77
2022/03/05 11:44:17;;;;;;;32.72;16.42;;;9.00;12.50;;;;;;4993771;28;20457;-76
2022/03/05 11:46:43;;;;;;;30.20;15.32;;;9.10;11.70;;;;;;4995126;28;20888;-76
2022/03/05 11:49:14;;;;;;;30.00;15.93;;;9.30;12.40;;;;;;4994774;28;20405;-77
2022/03/05 11:51:54;;;;;;;34.72;15.80;;;9.10;11.30;;;;;;4995141;28;20403;-77
2022/03/05 11:54:19;;;;;;;32.10;15.98;;;9.10;11.00;;;;;;4993696;28;20537;-77
2022/03/05 11:57:10;;;;;;;32.55;15.65;;;9.20;11.10;;;;;;4994517;28;20474;-77
2022/03/05 11:59:51;;;;;;;29.80;16.40;;;9.30;11.10;;;;;;4989539;28;20400;-76
2022/03/05 12:02:38;;;;;;;34.75;16.80;;;9.20;10.90;;;;;;4993009;28;20486;-76
2022/03/05 12:05:04;;;;;;;34.58;16.48;;;9.40;11.50;;;;;;4994038;28;20410;-76
2022/03/05 12:07:39;;;;;;;35.33;16.95;;;9.60;14.10;;;;;;4998834;28;20411;-78
2022/03/05 12:10:12;;;;;;;30.10;14.75;;;9.70;10.70;;;;;;4998247;28;20413;-76
2022/03/05 12:12:59;;;;;;;31.83;15.52;;;9.80;9.00;;;;;;4983910;28;20462;-76
2022/03/05 12:15:26;;;;;;;30.58;16.00;;;9.50;10.40;;;;;;5001114;28;20412;-78
2022/03/05 12:17:53;;;;;;;33.30;16.40;;;9.50;9.80;;;;;;5001093;28;20399;-77
2022/03/05 12:20:31;;;;;;;27.20;15.37;;;9.50;8.50;;;;;;5000017;28;20390;-77
2022/03/05 12:23:04;;;;;;;32.35;16.00;;;9.60;8.80;;;;;;5000227;28;20499;-76
2022/03/05 12:25:34;;;;;;;27.55;15.35;;;9.60;9.50;;;;;;5002324;28;20404;-76
2022/03/05 12:28:00;;;;;;;33.17;16.75;;;9.60;8.00;;;;;;5000658;28;20497;-77
2022/03/05 12:30:33;;;;;;;29.98;14.07;;;9.60;9.20;;;;;;4999652;28;20410;-77
2022/03/05 12:33:00;;;;;;;27.52;14.15;;;9.50;6.60;;;;;;4998092;28;20411;-77
2022/03/05 12:35:27;;;;;;;29.83;15.50;;;9.60;7.70;;;;;;4997600;28;20930;-76
2022/03/05 12:37:54;;;;;;;27.92;14.07;;;9.70;7.40;;;;;;4999617;28;20398;-77
2022/03/05 12:40:22;;;;;;;25.83;14.13;;;9.60;7.20;;;;;;4982435;28;20400;-77
2022/03/05 12:42:49;;;;;;;28.70;15.30;;;9.70;8.20;;;;;;4999194;28;20399;-77
2022/03/05 12:45:24;;;;;;;26.65;14.27;;;9.70;7.40;;;;;;5000365;28;20399;-79